Time;durP1;ratioP1;P1;durP2;ratioP2;P2;SDS_P1;SDS_P2;PMS_P1;PMS_P2;Temp;Humidity;BMP_temperature;BMP_pressure;BME280_temperature;BME280_humidity;BME280_pressure;Samples;Min_cycle;Max_cycle;Signal;HPM_P1;HPM_P2
2024/04/02 00:01:09;;;;;;;2.20;0.60;;;23.60;64.10;;;;;;5009243;28;20428;-52
2024/04/02 00:03:37;;;;;;;1.27;0.55;;;23.70;64.80;;;;;;5007160;28;20612;-51
2024/04/02 00:06:04;;;;;;;1.35;0.73;;;23.70;64.60;;;;;;5009226;28;20082;-53
2024/04/02 00:08:31;;;;;;;2.78;0.60;;;23.40;65.00;;;;;;5008761;28;20086;-52
2024/04/02 00:11:08;;;;;;;2.75;0.80;;;23.30;65.50;;;;;;5008934;28;20109;-53
2024/04/02 00:13:35;;;;;;;1.13;0.50;;;23.50;65.40;;;;;;5008219;28;20074;-50
2024/04/02 00:16:02;;;;;;;4.05;0.68;;;23.70;65.50;;;;;;5009536;28;20094;-52
2024/04/02 00:18:29;;;;;;;1.08;0.55;;;23.80;63.70;;;;;;5008567;28;20083;-52
2024/04/02 00:21:00;;;;;;;0.93;0.50;;;23.80;64.50;;;;;;5009312;28;20571;-50
2024/04/02 00:23:27;;;;;;;4.50;0.80;;;23.70;65.00;;;;;;5007309;28;20148;-54
2024/04/02 00:26:01;;;;;;;4.22;0.80;;;23.90;66.10;;;;;;5007962;28;20075;-51
2024/04/02 00:28:28;;;;;;;2.53;0.57;;;24.00;64.90;;;;;;5006086;28;20083;-54
2024/04/02 00:31:02;;;;;;;1.25;0.50;;;23.90;63.70;;;;;;5007812;28;20112;-55
2024/04/02 00:33:32;;;;;;;4.10;1.63;;;23.80;64.30;;;;;;4989647;28;20074;-51
2024/04/02 00:36:06;;;;;;;2.97;0.70;;;23.70;65.50;;;;;;5008986;28;20477;-50
2024/04/02 00:38:33;;;;;;;1.48;0.65;;;23.60;65.40;;;;;;5008521;28;20109;-53
2024/04/02 00:41:00;;;;;;;1.35;0.50;;;23.30;64.60;;;;;;5008934;28;20078;-51
2024/04/02 00:43:27;;;;;;;2.90;0.70;;;23.30;65.20;;;;;;5008547;28;20153;-50
2024/04/02 00:45:55;;;;;;;1.13;0.50;;;23.30;66.00;;;;;;5007751;28;20468;-51
2024/04/02 00:48:23;;;;;;;1.98;0.73;;;23.20;65.40;;;;;;4988408;28;20079;-51
2024/04/02 00:50:50;;;;;;;1.38;0.68;;;23.10;66.20;;;;;;5008241;28;20153;-49
2024/04/02 00:53:20;;;;;;;1.60;0.60;;;23.00;66.80;;;;;;5007783;28;20525;-50
2024/04/02 00:55:46;;;;;;;6.32;0.60;;;23.00;66.40;;;;;;5008140;28;20444;-50
2024/04/02 00:58:15;;;;;;;3.25;0.70;;;23.00;66.50;;;;;;4988570;28;20109;-55
2024/04/02 01:00:43;;;;;;;9.75;1.33;;;22.90;66.30;;;;;;4991198;28;20156;-54
2024/04/02 01:03:10;;;;;;;4.75;0.77;;;22.90;66.10;;;;;;5007381;28;20070;-56
2024/04/02 01:05:38;;;;;;;2.95;0.70;;;22.90;66.20;;;;;;5006906;28;20161;-55
2024/04/02 01:08:05;;;;;;;1.48;0.50;;;22.80;67.10;;;;;;5008634;28;20070;-51
2024/04/02 01:10:32;;;;;;;5.32;0.73;;;22.70;66.90;;;;;;5007656;28;20077;-56
2024/04/02 01:13:00;;;;;;;3.85;0.70;;;22.70;67.40;;;;;;4990307;28;20079;-52
2024/04/02 01:15:26;;;;;;;3.47;0.75;;;22.50;66.30;;;;;;5008082;28;20082;-52
2024/04/02 01:17:54;;;;;;;1.50;0.70;;;22.50;66.30;;;;;;5008988;28;20189;-50
2024/04/02 01:20:20;;;;;;;2.25;0.55;;;22.50;65.80;;;;;;5007801;28;20071;-50
2024/04/02 01:22:47;;;;;;;1.33;0.50;;;22.60;66.60;;;;;;5008969;28;20066;-54
2024/04/02 01:25:15;;;;;;;3.85;0.80;;;22.90;66.90;;;;;;5008710;28;20113;-54
2024/04/02 01:27:41;;;;;;;2.47;0.75;;;22.70;67.50;;;;;;5008605;28;20140;-50
2024/04/02 01:30:08;;;;;;;1.83;0.70;;;22.40;66.40;;;;;;5008268;28;20078;-54
2024/04/02 01:32:34;;;;;;;2.50;0.60;;;22.10;68.20;;;;;;5006781;28;20074;-53
2024/04/02 01:35:01;;;;;;;7.43;0.80;;;21.90;67.70;;;;;;5004657;28;20084;-49
2024/04/02 01:37:28;;;;;;;3.50;1.13;;;21.80;67.30;;;;;;5008030;28;20113;-49
2024/04/02 01:39:55;;;;;;;5.43;2.13;;;21.80;68.80;;;;;;5008088;28;20132;-52
2024/04/02 01:42:22;;;;;;;4.10;1.33;;;21.70;68.80;;;;;;5005800;28;20150;-51
2024/04/02 01:44:51;;;;;;;6.22;0.88;;;21.60;67.90;;;;;;5005537;28;20102;-54
2024/04/02 01:47:18;;;;;;;1.02;0.90;;;21.60;68.10;;;;;;5006822;28;20105;-50
2024/04/02 01:49:44;;;;;;;3.30;1.02;;;21.50;70.60;;;;;;5006105;28;20133;-52
2024/04/02 01:52:10;;;;;;;2.30;0.80;;;21.40;71.40;;;;;;4989687;28;20504;-50
2024/04/02 01:54:38;;;;;;;2.58;0.90;;;21.40;70.20;;;;;;5007679;28;20081;-51
2024/04/02 01:57:04;;;;;;;7.90;1.70;;;21.30;70.00;;;;;;5006595;28;20074;-50
2024/04/02 01:59:31;;;;;;;5.88;1.10;;;21.20;70.00;;;;;;5006738;28;20519;-52
2024/04/02 02:01:57;;;;;;;2.05;0.88;;;21.10;71.20;;;;;;5004699;28;20129;-49
2024/04/02 02:04:24;;;;;;;1.48;0.73;;;21.00;70.20;;;;;;4989750;28;20098;-55
2024/04/02 02:06:50;;;;;;;2.78;0.60;;;20.90;72.00;;;;;;5007327;28;20071;-50
2024/04/02 02:09:17;;;;;;;3.80;0.80;;;20.90;73.20;;;;;;5005456;28;20075;-50
2024/04/02 02:11:43;;;;;;;2.10;0.70;;;20.80;72.90;;;;;;5007925;28;20074;-50
2024/04/02 02:14:10;;;;;;;2.97;0.60;;;20.60;73.40;;;;;;5006429;28;20066;-53
2024/04/02 02:16:36;;;;;;;22.38;16.23;;;20.60;70.80;;;;;;5005601;28;20081;-55
2024/04/02 02:19:03;;;;;;;3.33;1.00;;;20.60;70.60;;;;;;4989039;28;20470;-52
2024/04/02 02:21:29;;;;;;;4.93;1.10;;;20.60;73.70;;;;;;4989133;28;20101;-48
2024/04/02 02:23:55;;;;;;;8.38;1.45;;;20.40;75.60;;;;;;5006814;28;20110;-54
2024/04/02 02:26:22;;;;;;;6.45;1.75;;;20.30;75.90;;;;;;5007177;28;20062;-62
2024/04/02 02:28:48;;;;;;;9.30;1.55;;;20.20;76.60;;;;;;4988793;28;20086;-60
2024/04/02 02:31:16;;;;;;;8.02;1.50;;;20.30;77.50;;;;;;5007438;28;20545;-60
2024/04/02 02:33:42;;;;;;;10.35;1.50;;;20.50;77.10;;;;;;5007883;28;20539;-60
2024/04/02 02:36:09;;;;;;;13.88;1.80;;;20.50;76.70;;;;;;5006009;28;20078;-61
2024/04/02 02:38:35;;;;;;;6.32;1.27;;;20.60;78.10;;;;;;5005782;28;20146;-62
2024/04/02 02:41:03;;;;;;;11.15;1.20;;;20.50;78.80;;;;;;4989579;28;20078;-60
2024/04/02 02:43:29;;;;;;;7.00;1.00;;;20.50;79.20;;;;;;5006018;28;20225;-61
2024/04/02 02:45:56;;;;;;;6.07;1.20;;;20.40;78.70;;;;;;5007533;28;20074;-62
2024/04/02 02:48:22;;;;;;;6.63;1.20;;;20.30;78.90;;;;;;5006930;28;20070;-61
2024/04/02 02:50:49;;;;;;;12.10;1.90;;;20.20;79.90;;;;;;4988459;28;20071;-61
2024/04/02 02:53:15;;;;;;;6.03;1.60;;;20.20;80.00;;;;;;5005263;28;20070;-60
2024/04/02 02:55:42;;;;;;;11.63;1.80;;;20.20;80.00;;;;;;5008165;28;20082;-61
2024/04/02 02:58:09;;;;;;;14.73;5.90;;;20.20;80.10;;;;;;5008616;28;20116;-61
2024/04/02 03:00:39;;;;;;;15.30;3.28;;;20.30;79.60;;;;;;5007945;28;20086;-60
2024/04/02 03:03:06;;;;;;;16.52;3.30;;;20.20;80.40;;;;;;5009319;28;20077;-61
2024/04/02 03:05:32;;;;;;;15.60;3.28;;;20.20;80.40;;;;;;5011320;28;20067;-60
2024/04/02 03:07:59;;;;;;;15.23;3.13;;;20.30;81.70;;;;;;5011079;28;20070;-61
2024/04/02 03:10:25;;;;;;;22.73;3.25;;;20.20;81.60;;;;;;4993105;28;20499;-61
2024/04/02 03:12:52;;;;;;;17.10;3.22;;;20.00;83.30;;;;;;5008512;28;20531;-60
2024/04/02 03:15:18;;;;;;;26.98;3.60;;;20.00;83.60;;;;;;5010562;28;20078;-62
2024/04/02 03:17:45;;;;;;;21.33;2.83;;;20.10;83.20;;;;;;4993556;28;20083;-62
2024/04/02 03:20:11;;;;;;;21.45;3.00;;;20.10;82.70;;;;;;5011626;28;20197;-62
2024/04/02 03:22:38;;;;;;;20.60;3.00;;;20.10;82.60;;;;;;5010196;28;20117;-62
2024/04/02 03:25:04;;;;;;;18.88;3.22;;;19.90;83.90;;;;;;4991551;28;20196;-61
2024/04/02 03:27:32;;;;;;;23.60;3.28;;;19.80;83.70;;;;;;5011293;28;20070;-61
2024/04/02 03:29:58;;;;;;;26.08;3.38;;;19.60;85.50;;;;;;5010497;28;20129;-62
2024/04/02 03:32:24;;;;;;;30.23;4.35;;;19.70;85.60;;;;;;5009685;28;20066;-61
2024/04/02 03:34:51;;;;;;;18.65;3.80;;;19.80;86.70;;;;;;5007757;28;20066;-61
2024/04/02 03:37:17;;;;;;;25.40;5.13;;;19.60;85.90;;;;;;5010573;28;20081;-61
2024/04/02 03:39:44;;;;;;;32.85;5.82;;;19.50;86.70;;;;;;4992407;28;21103;-61
2024/04/02 03:42:10;;;;;;;26.20;5.38;;;19.60;86.90;;;;;;5008532;28;20106;-61
2024/04/02 03:44:37;;;;;;;30.00;5.03;;;19.50;85.20;;;;;;5010502;28;20145;-60
2024/04/02 03:47:03;;;;;;;26.63;4.95;;;19.50;84.20;;;;;;5009414;28;20090;-61
2024/04/02 03:49:30;;;;;;;31.65;5.60;;;19.50;87.60;;;;;;5008527;28;20174;-62
2024/04/02 03:51:56;;;;;;;24.23;5.28;;;19.30;87.50;;;;;;5009322;28;20517;-61
2024/04/02 03:54:23;;;;;;;35.22;5.38;;;19.20;89.70;;;;;;5010093;28;20075;-61
2024/04/02 03:56:50;;;;;;;27.40;4.35;;;19.20;90.20;;;;;;5008987;28;20081;-60
2024/04/02 03:59:16;;;;;;;21.48;4.80;;;19.10;90.30;;;;;;5009960;28;20081;-61
2024/04/02 04:01:43;;;;;;;23.58;4.82;;;19.00;90.50;;;;;;5009171;28;20086;-61
2024/04/02 04:04:09;;;;;;;24.58;4.65;;;19.00;91.20;;;;;;5009813;28;20200;-61
2024/04/02 04:06:36;;;;;;;34.55;5.70;;;19.00;91.30;;;;;;5008800;28;21024;-61
2024/04/02 04:09:03;;;;;;;24.98;5.30;;;19.00;92.10;;;;;;5010595;28;21332;-61
2024/04/02 04:11:29;;;;;;;27.40;5.20;;;19.00;91.00;;;;;;5008287;28;20081;-60
2024/04/02 04:13:56;;;;;;;29.08;5.82;;;19.00;91.00;;;;;;5007643;28;20126;-62
2024/04/02 04:16:22;;;;;;;39.72;7.35;;;19.00;91.00;;;;;;5010414;28;20121;-61
2024/04/02 04:18:48;;;;;;;45.33;10.07;;;19.00;91.30;;;;;;5009785;28;20115;-62
2024/04/02 04:21:15;;;;;;;44.63;13.70;;;19.00;90.20;;;;;;5009168;28;20153;-61
2024/04/02 04:23:42;;;;;;;52.53;12.43;;;18.90;86.80;;;;;;5009903;28;20163;-63
2024/04/02 04:26:08;;;;;;;44.92;13.25;;;18.90;88.20;;;;;;5009860;28;20393;-61
2024/04/02 04:28:35;;;;;;;48.45;13.35;;;19.00;88.30;;;;;;5009562;28;20070;-61
2024/04/02 04:31:03;;;;;;;52.70;13.57;;;19.00;90.00;;;;;;5008234;28;20069;-60
2024/04/02 04:33:31;;;;;;;59.67;13.88;;;18.90;87.60;;;;;;5009777;28;20154;-61
2024/04/02 04:35:58;;;;;;;57.47;13.43;;;18.80;86.80;;;;;;5008297;28;20413;-61
2024/04/02 04:38:27;;;;;;;58.28;13.30;;;18.70;87.80;;;;;;4992101;28;20484;-61
2024/04/02 04:40:54;;;;;;;52.28;13.18;;;18.70;90.50;;;;;;5009334;28;20081;-62
2024/04/02 04:43:20;;;;;;;50.42;13.70;;;18.60;91.00;;;;;;5008469;28;20440;-61
2024/04/02 04:45:54;;;;;;;42.65;14.25;;;18.50;91.40;;;;;;4990942;28;20113;-61
2024/04/02 04:48:21;;;;;;;53.55;13.98;;;18.50;92.20;;;;;;5009247;28;20070;-58
2024/04/02 04:50:57;;;;;;;42.30;14.25;;;18.40;92.50;;;;;;5009398;28;20182;-61
2024/04/02 04:53:24;;;;;;;41.88;12.80;;;18.30;93.10;;;;;;5007886;28;20090;-60
2024/04/02 04:55:50;;;;;;;39.90;12.60;;;18.30;91.90;;;;;;5008923;28;20079;-60
2024/04/02 04:58:17;;;;;;;35.70;12.00;;;18.30;92.60;;;;;;5007378;28;20073;-60
2024/04/02 05:00:44;;;;;;;29.88;11.93;;;18.20;93.20;;;;;;5007517;28;20074;-62
2024/04/02 05:03:10;;;;;;;38.40;11.95;;;18.10;93.50;;;;;;5007740;28;20070;-62
2024/04/02 05:05:37;;;;;;;41.60;11.32;;;18.10;93.10;;;;;;5008572;28;20093;-60
2024/04/02 05:08:19;;;;;;;37.70;11.65;;;18.10;93.00;;;;;;5009072;28;20574;-61
2024/04/02 05:10:47;;;;;;;32.45;11.07;;;18.10;94.20;;;;;;5008535;28;20070;-62
2024/04/02 05:13:17;;;;;;;34.25;11.07;;;17.90;94.80;;;;;;5009566;28;20597;-61
2024/04/02 05:15:44;;;;;;;39.72;11.15;;;17.80;94.30;;;;;;5007810;28;20070;-60
2024/04/02 05:18:11;;;;;;;31.15;11.02;;;17.70;93.70;;;;;;5008548;28;20293;-62
2024/04/02 05:20:38;;;;;;;34.95;11.43;;;17.60;94.10;;;;;;5008923;28;20071;-61
2024/04/02 05:23:05;;;;;;;42.03;12.30;;;17.60;94.10;;;;;;4991035;28;20181;-61
2024/04/02 05:25:32;;;;;;;50.45;17.33;;;17.60;94.10;;;;;;5007992;28;20475;-61
2024/04/02 05:27:59;;;;;;;51.03;19.85;;;17.50;94.50;;;;;;5007950;28;21283;-62
2024/04/02 05:30:26;;;;;;;50.20;18.77;;;17.50;94.20;;;;;;5008678;28;20070;-62
2024/04/02 05:32:52;;;;;;;59.40;19.50;;;17.50;94.70;;;;;;5008303;28;20424;-61
2024/04/02 05:35:20;;;;;;;65.43;22.40;;;17.40;95.00;;;;;;4989837;28;20090;-62
2024/04/02 05:37:51;;;;;;;69.40;22.50;;;17.40;95.60;;;;;;5008908;28;20169;-62
2024/04/02 05:40:19;;;;;;;63.58;22.38;;;17.30;96.10;;;;;;4990924;28;20079;-60
2024/04/02 05:42:45;;;;;;;77.60;24.55;;;17.20;96.40;;;;;;5008449;28;20133;-60
2024/04/02 05:45:16;;;;;;;66.97;23.63;;;17.20;96.80;;;;;;5008397;28;20105;-61
2024/04/02 05:47:43;;;;;;;69.22;23.00;;;17.30;97.60;;;;;;5007259;28;20128;-60
2024/04/02 05:50:10;;;;;;;73.32;22.88;;;17.30;97.60;;;;;;5007683;28;20066;-61
2024/04/02 05:52:37;;;;;;;81.10;22.00;;;17.30;97.80;;;;;;5007385;28;20444;-61
2024/04/02 05:55:04;;;;;;;61.10;21.58;;;17.30;97.20;;;;;;5007120;28;20112;-61
2024/04/02 05:57:30;;;;;;;72.50;19.95;;;17.30;97.40;;;;;;5006314;28;20512;-61
2024/04/02 05:59:58;;;;;;;49.83;19.50;;;17.20;98.10;;;;;;5008607;28;20075;-62
2024/04/02 06:02:24;;;;;;;64.50;20.95;;;17.10;98.00;;;;;;5007688;28;20078;-62
2024/04/02 06:04:51;;;;;;;57.70;19.13;;;17.00;98.30;;;;;;5006847;28;20094;-61
2024/04/02 06:07:18;;;;;;;57.97;19.48;;;17.00;98.60;;;;;;4989185;28;20074;-61
2024/04/02 06:09:45;;;;;;;53.55;19.02;;;17.00;98.90;;;;;;5005882;28;20074;-61
2024/04/02 06:12:11;;;;;;;55.22;18.10;;;16.90;99.70;;;;;;5007254;28;20376;-61
2024/04/02 06:14:38;;;;;;;44.75;18.23;;;17.00;99.90;;;;;;5007102;28;20074;-61
2024/04/02 06:17:05;;;;;;;48.97;18.02;;;16.90;99.90;;;;;;5008529;28;20098;-61
2024/04/02 06:19:34;;;;;;;45.65;16.90;;;16.80;99.90;;;;;;5007553;28;20174;-61
2024/04/02 06:22:01;;;;;;;49.85;15.60;;;16.70;99.90;;;;;;5008092;28;20368;-61
2024/04/02 06:24:28;;;;;;;45.83;14.43;;;16.60;99.90;;;;;;5007431;28;20114;-61
2024/04/02 06:26:54;;;;;;;56.50;14.88;;;16.50;99.90;;;;;;5007978;28;20089;-62
2024/04/02 06:29:21;;;;;;;34.83;14.40;;;16.50;99.90;;;;;;5007505;28;20095;-62
2024/04/02 06:31:47;;;;;;;51.60;15.75;;;16.50;99.90;;;;;;5010448;28;20093;-61
2024/04/02 06:34:13;;;;;;;53.35;14.75;;;16.50;99.90;;;;;;5010468;28;20078;-62
2024/04/02 06:36:40;;;;;;;48.40;14.38;;;16.50;99.90;;;;;;5010412;28;20070;-62
2024/04/02 06:39:07;;;;;;;46.63;15.25;;;16.60;99.90;;;;;;5012220;28;20074;-64
2024/04/02 06:41:34;;;;;;;49.53;13.57;;;16.60;99.90;;;;;;5010770;28;20078;-60
2024/04/02 06:44:01;;;;;;;43.67;14.05;;;16.50;99.90;;;;;;4992709;28;20102;-61
2024/04/02 06:46:28;;;;;;;49.40;14.43;;;16.40;99.90;;;;;;5011659;28;20145;-60
2024/04/02 06:48:57;;;;;;;46.90;14.05;;;16.40;99.90;;;;;;5011383;28;20136;-60
2024/04/02 06:51:24;;;;;;;44.38;13.73;;;16.40;99.90;;;;;;5012329;28;20078;-60
2024/04/02 06:53:51;;;;;;;42.72;14.55;;;16.30;99.90;;;;;;4992091;28;20070;-60
2024/04/02 06:56:17;;;;;;;38.10;14.57;;;16.40;99.90;;;;;;5011532;28;20070;-61
2024/04/02 06:58:44;;;;;;;55.33;15.65;;;16.40;99.90;;;;;;5010692;28;20231;-60
2024/04/02 07:01:13;;;;;;;62.67;15.35;;;16.40;99.90;;;;;;4992927;28;20508;-60
2024/04/02 07:03:40;;;;;;;47.70;15.00;;;16.40;99.90;;;;;;5010430;28;20114;-61
2024/04/02 07:06:07;;;;;;;40.10;13.95;;;16.30;99.90;;;;;;5009275;28;20147;-61
2024/04/02 07:08:34;;;;;;;36.30;12.98;;;16.40;99.90;;;;;;5010178;28;20082;-61
2024/04/02 07:11:05;;;;;;;51.80;14.15;;;16.30;99.90;;;;;;5009580;28;20153;-60
2024/04/02 07:13:33;;;;;;;42.03;13.35;;;16.20;99.90;;;;;;5008670;28;20234;-60
2024/04/02 07:16:03;;;;;;;50.97;14.70;;;16.10;99.90;;;;;;5010236;28;20074;-60
2024/04/02 07:18:35;;;;;;;43.03;13.35;;;16.10;99.90;;;;;;5010962;28;20091;-60
2024/04/02 07:21:05;;;;;;;55.00;15.02;;;16.00;99.90;;;;;;5011226;28;20162;-60
2024/04/02 07:23:33;;;;;;;45.15;13.35;;;16.00;99.90;;;;;;5010547;28;20102;-61
2024/04/02 07:25:59;;;;;;;48.92;14.63;;;16.00;99.90;;;;;;5010539;28;20487;-61
2024/04/02 07:28:26;;;;;;;49.55;16.05;;;15.90;99.90;;;;;;5010113;28;20074;-61
2024/04/02 07:30:53;;;;;;;44.40;18.20;;;16.00;99.90;;;;;;5011553;28;20086;-62
2024/04/02 07:33:20;;;;;;;46.30;16.77;;;15.90;99.90;;;;;;5008610;28;20067;-61
2024/04/02 07:35:46;;;;;;;57.95;17.10;;;15.90;99.90;;;;;;5011354;28;20160;-61
2024/04/02 07:38:16;;;;;;;55.05;17.30;;;15.90;99.90;;;;;;5010723;28;20121;-61
2024/04/02 07:40:44;;;;;;;55.60;19.10;;;15.90;99.90;;;;;;5010923;28;20077;-61
2024/04/02 07:43:10;;;;;;;58.72;21.73;;;16.00;99.90;;;;;;5008454;28;20106;-61
2024/04/02 07:45:37;;;;;;;64.03;22.90;;;16.10;99.90;;;;;;5011139;28;20144;-61
2024/04/02 07:48:04;;;;;;;56.13;22.70;;;16.10;99.90;;;;;;5010897;28;20074;-61
2024/04/02 07:50:32;;;;;;;53.92;24.92;;;16.00;99.90;;;;;;5008189;28;20062;-61
2024/04/02 07:52:59;;;;;;;66.50;25.00;;;16.00;99.90;;;;;;5010333;28;20070;-63
2024/04/02 07:55:26;;;;;;;68.68;25.80;;;15.90;99.90;;;;;;5010610;28;20066;-61
2024/04/02 07:57:52;;;;;;;62.50;27.02;;;16.10;99.90;;;;;;5008652;28;20074;-61
2024/04/02 08:00:19;;;;;;;58.58;26.20;;;16.00;99.90;;;;;;5010745;28;20116;-61
2024/04/02 08:02:47;;;;;;;59.00;26.60;;;15.90;99.90;;;;;;4992283;28;20471;-61
2024/04/02 08:05:14;;;;;;;58.50;25.05;;;16.00;99.90;;;;;;5009091;28;20177;-60
2024/04/02 08:07:49;;;;;;;56.10;25.75;;;15.90;99.90;;;;;;5008850;28;20073;-61
2024/04/02 08:10:15;;;;;;;65.40;26.35;;;15.80;99.90;;;;;;5009032;28;20078;-62
2024/04/02 08:12:42;;;;;;;62.55;26.95;;;15.70;99.90;;;;;;5007898;28;20125;-62
2024/04/02 08:15:09;;;;;;;60.05;25.40;;;15.60;99.90;;;;;;5009209;28;20086;-61
2024/04/02 08:17:35;;;;;;;53.38;25.92;;;15.60;99.90;;;;;;5010244;28;20074;-60
2024/04/02 08:20:03;;;;;;;47.90;21.40;;;15.70;99.90;;;;;;5009215;28;20079;-60
2024/04/02 08:22:30;;;;;;;45.83;22.70;;;15.70;99.90;;;;;;5009193;28;20066;-60
2024/04/02 08:24:57;;;;;;;50.22;23.35;;;15.60;99.90;;;;;;4975164;28;20094;-62
2024/04/02 08:27:23;;;;;;;47.97;21.90;;;15.50;99.90;;;;;;4991875;28;20074;-61
2024/04/02 08:29:50;;;;;;;44.63;21.85;;;15.50;99.90;;;;;;5009897;28;20074;-62
2024/04/02 08:32:17;;;;;;;45.15;21.00;;;15.50;99.90;;;;;;5008980;28;20136;-60
2024/04/02 08:34:44;;;;;;;61.38;21.90;;;15.60;99.90;;;;;;5009666;28;20090;-61
2024/04/02 08:37:10;;;;;;;53.42;22.17;;;15.60;99.90;;;;;;5009303;28;20145;-61
2024/04/02 08:39:37;;;;;;;45.67;21.13;;;15.50;99.90;;;;;;5008100;28;20086;-62
2024/04/02 08:42:04;;;;;;;43.17;19.80;;;15.50;99.90;;;;;;5009952;28;20133;-61
2024/04/02 08:44:36;;;;;;;40.40;19.38;;;15.60;99.90;;;;;;5009078;28;20177;-60
2024/04/02 08:47:03;;;;;;;41.92;19.60;;;15.60;99.90;;;;;;5009842;28;20078;-61
2024/04/02 08:49:32;;;;;;;38.50;18.42;;;15.60;99.90;;;;;;5008871;28;20911;-61
2024/04/02 08:52:02;;;;;;;38.05;17.80;;;15.50;99.90;;;;;;5008854;28;20512;-61
2024/04/02 08:54:30;;;;;;;32.03;14.48;;;15.60;99.90;;;;;;5007733;28;20067;-61
2024/04/02 08:56:57;;;;;;;35.95;12.25;;;15.60;99.90;;;;;;5009193;28;20497;-60
2024/04/02 08:59:31;;;;;;;26.05;11.07;;;15.70;99.90;;;;;;5007866;28;20086;-62
2024/04/02 09:02:02;;;;;;;28.20;12.63;;;15.60;99.90;;;;;;5009204;28;20125;-65
2024/04/02 09:04:32;;;;;;;28.83;11.05;;;15.50;99.90;;;;;;5009522;28;20107;-60
2024/04/02 09:06:59;;;;;;;27.33;11.07;;;15.50;99.90;;;;;;5009143;28;20077;-62
2024/04/02 09:09:27;;;;;;;28.35;11.93;;;15.60;99.90;;;;;;5007922;28;20063;-61
2024/04/02 09:11:53;;;;;;;24.27;11.48;;;15.60;99.90;;;;;;5009118;28;20161;-61
2024/04/02 09:14:20;;;;;;;23.35;10.60;;;15.60;99.90;;;;;;5008439;28;20076;-60
2024/04/02 09:16:53;;;;;;;26.85;11.95;;;15.60;99.90;;;;;;5008482;28;20124;-60
2024/04/02 09:19:20;;;;;;;27.38;11.55;;;15.50;99.90;;;;;;5008452;28;20509;-60
2024/04/02 09:21:46;;;;;;;26.85;11.68;;;15.40;99.90;;;;;;5008695;28;20082;-61
2024/04/02 09:24:13;;;;;;;28.65;11.50;;;15.30;99.90;;;;;;4990433;28;20102;-60
2024/04/02 09:26:39;;;;;;;27.35;11.35;;;15.30;99.90;;;;;;5008643;28;20074;-64
2024/04/02 09:29:05;;;;;;;28.77;12.32;;;15.30;99.90;;;;;;5008483;28;20124;-62
2024/04/02 09:31:33;;;;;;;27.50;11.90;;;15.20;99.90;;;;;;5006782;28;20078;-60
2024/04/02 09:34:05;;;;;;;27.50;11.73;;;15.10;99.90;;;;;;4990369;28;20081;-61
2024/04/02 09:36:42;;;;;;;29.50;12.48;;;15.20;99.90;;;;;;5008312;28;20096;-61
2024/04/02 09:39:13;;;;;;;29.65;14.18;;;15.10;99.90;;;;;;4990328;28;20070;-61
2024/04/02 09:41:45;;;;;;;35.05;13.27;;;15.00;99.90;;;;;;5008208;28;20110;-61
2024/04/02 09:44:16;;;;;;;26.13;13.00;;;15.00;99.90;;;;;;5005561;28;20145;-60
2024/04/02 09:46:44;;;;;;;28.88;13.02;;;15.00;99.90;;;;;;4990394;28;20078;-64
2024/04/02 09:49:12;;;;;;;28.90;14.02;;;15.00;99.90;;;;;;5006928;28;20153;-60
2024/04/02 09:51:41;;;;;;;31.63;13.15;;;14.80;99.90;;;;;;5008618;28;20077;-61
2024/04/02 09:54:10;;;;;;;35.65;13.73;;;14.70;99.90;;;;;;5007822;28;20090;-60
2024/04/02 09:56:37;;;;;;;28.73;14.70;;;14.80;99.90;;;;;;5007281;28;20102;-60
2024/04/02 09:59:06;;;;;;;29.65;14.18;;;14.80;99.90;;;;;;5008114;28;20078;-60
2024/04/02 10:01:35;;;;;;;34.22;14.02;;;14.80;99.90;;;;;;5007851;28;20144;-61
2024/04/02 10:04:05;;;;;;;26.88;13.55;;;14.80;99.90;;;;;;5008436;28;20094;-61
2024/04/02 10:06:34;;;;;;;25.30;13.40;;;14.70;99.90;;;;;;5010796;28;20079;-60
2024/04/02 10:09:05;;;;;;;24.17;12.57;;;14.70;99.90;;;;;;5012482;28;20098;-60
2024/04/02 10:11:42;;;;;;;28.13;13.57;;;14.70;99.90;;;;;;5012836;28;20102;-61
2024/04/02 10:14:12;;;;;;;31.65;13.25;;;14.80;99.90;;;;;;5011972;28;20451;-62
2024/04/02 10:16:43;;;;;;;31.83;15.00;;;14.70;99.90;;;;;;5011391;28;20574;-61
2024/04/02 10:19:20;;;;;;;33.20;13.73;;;14.60;99.90;;;;;;5012195;28;20081;-64
2024/04/02 10:21:47;;;;;;;35.80;14.57;;;14.60;99.90;;;;;;5009448;28;20114;-61
2024/04/02 10:24:21;;;;;;;28.60;15.45;;;14.70;99.90;;;;;;4993154;28;20211;-60
2024/04/02 10:26:51;;;;;;;25.42;14.43;;;14.60;99.90;;;;;;5010565;28;20932;-61
2024/04/02 10:29:28;;;;;;;31.55;16.58;;;14.50;99.90;;;;;;5011707;28;20524;-60
2024/04/02 10:31:56;;;;;;;;;;;14.50;99.90;;;;;;5011652;28;20064;-61
2024/04/02 10:34:24;;;;;;;34.17;18.20;;;14.40;99.90;;;;;;5011804;28;19976;-61
2024/04/02 10:36:51;;;;;;;33.10;18.35;;;14.30;99.90;;;;;;5010718;28;20066;-60
2024/04/02 10:39:18;;;;;;;33.70;18.35;;;14.20;99.90;;;;;;5011212;28;20085;-62
2024/04/02 10:41:45;;;;;;;31.48;18.70;;;14.20;99.90;;;;;;5011340;28;20077;-61
2024/04/02 10:44:17;;;;;;;28.98;18.88;;;14.30;99.90;;;;;;5012347;28;20106;-60
2024/04/02 10:46:44;;;;;;;26.98;17.92;;;14.20;99.90;;;;;;5010421;28;20153;-65
2024/04/02 10:49:10;;;;;;;33.22;18.77;;;14.30;99.90;;;;;;5010951;28;20074;-62
2024/04/02 10:51:36;;;;;;;32.50;20.70;;;14.30;99.90;;;;;;5011047;28;20133;-61
2024/04/02 10:54:03;;;;;;;34.75;22.50;;;14.30;99.90;;;;;;4994002;28;20075;-61
2024/04/02 10:56:33;;;;;;;37.70;24.15;;;14.20;99.90;;;;;;5011666;28;20077;-62
2024/04/02 10:59:03;;;;;;;37.05;24.85;;;14.20;99.90;;;;;;5010570;28;20081;-62
2024/04/02 11:01:30;;;;;;;33.17;20.52;;;14.10;99.90;;;;;;5011065;28;20102;-61
2024/04/02 11:03:58;;;;;;;38.92;24.10;;;14.30;99.90;;;;;;5011234;28;20098;-60
2024/04/02 11:06:24;;;;;;;32.10;22.45;;;14.10;99.90;;;;;;5009921;28;20074;-60
2024/04/02 11:08:51;;;;;;;42.83;26.00;;;14.10;99.90;;;;;;5009627;28;20074;-60
2024/04/02 11:11:27;;;;;;;40.40;26.65;;;14.10;99.90;;;;;;5010453;28;20198;-61
2024/04/02 11:14:03;;;;;;;36.47;22.70;;;14.00;99.90;;;;;;5009620;28;20089;-61
2024/04/02 11:16:30;;;;;;;36.08;24.55;;;14.00;99.90;;;;;;5010922;28;20097;-61
2024/04/02 11:18:57;;;;;;;31.25;22.00;;;14.10;99.90;;;;;;5010372;28;20081;-60
2024/04/02 11:21:25;;;;;;;31.42;18.40;;;14.00;99.90;;;;;;5010657;28;20520;-60
2024/04/02 11:26:36;;;;;;;29.40;17.63;;;14.00;99.90;;;;;;5009653;28;20571;-60
2024/04/02 11:29:07;;;;;;;28.60;17.67;;;14.00;99.90;;;;;;5011353;28;20165;-61
2024/04/02 11:31:34;;;;;;;30.08;17.55;;;13.90;99.90;;;;;;5007914;28;20786;-61
2024/04/02 11:34:03;;;;;;;36.85;18.08;;;14.00;99.90;;;;;;5010003;28;20105;-61
2024/04/02 11:36:30;;;;;;;32.50;17.10;;;13.90;99.90;;;;;;5009518;28;20074;-61
2024/04/02 11:38:57;;;;;;;32.90;16.73;;;13.90;99.90;;;;;;5008971;28;20066;-60
2024/04/02 11:41:24;;;;;;;38.03;18.25;;;13.80;99.90;;;;;;5008256;28;20062;-61
2024/04/02 11:43:51;;;;;;;35.33;16.75;;;13.80;99.90;;;;;;5009489;28;20114;-62
2024/04/02 11:46:17;;;;;;;31.75;15.90;;;13.80;99.90;;;;;;5008357;28;20071;-61
2024/04/02 11:48:44;;;;;;;31.42;15.70;;;13.80;99.90;;;;;;5008695;28;20074;-61
2024/04/02 11:51:10;;;;;;;31.60;15.90;;;13.70;99.90;;;;;;5008555;28;20070;-61
2024/04/02 11:53:37;;;;;;;32.05;16.23;;;13.70;99.90;;;;;;5010803;28;20174;-62
2024/04/02 11:56:03;;;;;;;29.15;16.30;;;13.70;99.90;;;;;;4990448;28;20525;-61
2024/04/02 12:01:15;;;;;;;42.08;18.48;;;13.70;99.90;;;;;;5009952;28;20106;-60
2024/04/02 12:03:41;;;;;;;31.55;17.80;;;13.60;99.90;;;;;;5009633;28;20094;-64
2024/04/02 12:06:08;;;;;;;36.45;18.63;;;13.50;99.90;;;;;;5007616;28;20132;-62
2024/04/02 12:08:34;;;;;;;38.47;21.40;;;13.60;99.90;;;;;;4991396;28;20512;-63
2024/04/02 12:11:01;;;;;;;31.80;20.00;;;13.60;99.90;;;;;;5010025;28;20075;-65
2024/04/02 12:13:28;;;;;;;36.42;20.85;;;13.70;99.90;;;;;;4992638;28;20116;-60
2024/04/02 12:15:55;;;;;;;35.67;20.85;;;13.80;99.90;;;;;;5008191;28;20121;-61
2024/04/02 12:18:21;;;;;;;35.47;19.88;;;13.80;99.90;;;;;;4990918;28;20070;-59
2024/04/02 12:20:48;;;;;;;29.67;19.88;;;13.90;99.90;;;;;;5009077;28;20102;-62
2024/04/02 12:23:14;;;;;;;36.42;20.73;;;13.80;99.90;;;;;;5008448;28;20081;-59
2024/04/02 12:25:41;;;;;;;31.80;20.25;;;13.60;99.90;;;;;;4991979;28;20539;-60
2024/04/02 12:28:07;;;;;;;35.60;20.92;;;13.50;99.90;;;;;;5007585;28;20076;-59
2024/04/02 12:30:34;;;;;;;30.67;20.80;;;13.50;99.90;;;;;;5009957;28;20070;-65
2024/04/02 12:33:00;;;;;;;37.78;20.05;;;13.40;99.90;;;;;;5007860;28;20556;-61
2024/04/02 12:35:28;;;;;;;34.80;20.08;;;13.40;99.90;;;;;;5008070;28;20063;-60
2024/04/02 12:37:54;;;;;;;35.72;19.48;;;13.50;99.90;;;;;;5008860;28;20521;-60
2024/04/02 12:40:21;;;;;;;32.95;18.75;;;13.40;99.90;;;;;;5009625;28;20066;-62